Terminal Aerodrome Forecast
Issued by NWS Wilmington, OH

Current Version | Previous Version | Text Only | Print | Product List | Glossary Off
Versions: 1 2 3 4 5 6 7 8 9 10 11 12 13 14 15 16 17 18 19 20 21 22 23

497
FTUS41 KILN 231140
TAFCMH
TAF
KCMH 231140Z 2312/2412 14006KT 2SM -RA BR OVC005
      TEMPO 2312/2315 5SM -RA SCT006 BKN025
     FM231500 21011KT P6SM VCSH OVC010
     FM232000 26008KT P6SM OVC015
      TEMPO 2322/2402 SCT015 OVC120
     FM240200 33005KT 5SM BR SCT010 OVC100
      TEMPO 2410/2412 BKN010=

USA.gov is the U.S. government's official web portal to all federal, state and local government web resources and services.